sensor_id;sensor_type;location;lat;lon;timestamp;P1;durP1;ratioP1;P2;durP2;ratioP2
10900;SDS011;5503;53.208;10.392;2022-07-29T00:00:38;5.53;;;1.85;;
10900;SDS011;5503;53.208;10.392;2022-07-29T00:03:05;4.03;;;1.65;;
10900;SDS011;5503;53.208;10.392;2022-07-29T00:05:32;4.45;;;1.90;;
10900;SDS011;5503;53.208;10.392;2022-07-29T00:08:01;7.37;;;2.00;;
10900;SDS011;5503;53.208;10.392;2022-07-29T00:10:28;4.68;;;1.90;;
10900;SDS011;5503;53.208;10.392;2022-07-29T00:12:55;5.40;;;2.08;;
10900;SDS011;5503;53.208;10.392;2022-07-29T00:15:22;4.22;;;1.80;;
10900;SDS011;5503;53.208;10.392;2022-07-29T00:17:49;5.05;;;1.80;;
10900;SDS011;5503;53.208;10.392;2022-07-29T00:20:16;6.70;;;2.20;;
10900;SDS011;5503;53.208;10.392;2022-07-29T00:22:43;6.20;;;1.90;;
10900;SDS011;5503;53.208;10.392;2022-07-29T00:25:12;6.93;;;2.00;;
10900;SDS011;5503;53.208;10.392;2022-07-29T00:27:40;5.63;;;1.88;;
10900;SDS011;5503;53.208;10.392;2022-07-29T00:30:07;4.60;;;1.80;;
10900;SDS011;5503;53.208;10.392;2022-07-29T00:32:35;5.23;;;2.27;;
10900;SDS011;5503;53.208;10.392;2022-07-29T00:35:02;6.43;;;1.90;;
10900;SDS011;5503;53.208;10.392;2022-07-29T00:37:47;7.07;;;2.20;;
10900;SDS011;5503;53.208;10.392;2022-07-29T00:40:15;5.30;;;1.77;;
10900;SDS011;5503;53.208;10.392;2022-07-29T00:42:42;4.05;;;1.70;;
10900;SDS011;5503;53.208;10.392;2022-07-29T00:45:10;9.33;;;2.73;;
10900;SDS011;5503;53.208;10.392;2022-07-29T00:47:37;4.90;;;1.90;;
10900;SDS011;5503;53.208;10.392;2022-07-29T00:50:05;5.65;;;1.70;;
10900;SDS011;5503;53.208;10.392;2022-07-29T00:52:33;6.13;;;2.10;;
10900;SDS011;5503;53.208;10.392;2022-07-29T00:55:03;6.15;;;1.90;;
10900;SDS011;5503;53.208;10.392;2022-07-29T00:57:31;4.70;;;2.00;;
10900;SDS011;5503;53.208;10.392;2022-07-29T00:59:59;4.35;;;1.80;;
10900;SDS011;5503;53.208;10.392;2022-07-29T01:02:26;6.57;;;1.90;;
10900;SDS011;5503;53.208;10.392;2022-07-29T01:04:53;4.82;;;1.83;;
10900;SDS011;5503;53.208;10.392;2022-07-29T01:07:22;5.65;;;2.20;;
10900;SDS011;5503;53.208;10.392;2022-07-29T01:09:50;3.80;;;1.53;;
10900;SDS011;5503;53.208;10.392;2022-07-29T01:12:18;5.95;;;2.00;;
10900;SDS011;5503;53.208;10.392;2022-07-29T01:14:52;5.93;;;1.98;;
10900;SDS011;5503;53.208;10.392;2022-07-29T01:17:21;4.85;;;1.77;;
10900;SDS011;5503;53.208;10.392;2022-07-29T01:19:53;8.75;;;2.10;;
10900;SDS011;5503;53.208;10.392;2022-07-29T01:22:28;8.87;;;2.03;;
10900;SDS011;5503;53.208;10.392;2022-07-29T01:28:07;6.47;;;2.10;;
10900;SDS011;5503;53.208;10.392;2022-07-29T01:30:44;5.03;;;2.17;;
10900;SDS011;5503;53.208;10.392;2022-07-29T01:33:15;4.93;;;2.30;;
10900;SDS011;5503;53.208;10.392;2022-07-29T01:36:01;4.80;;;2.10;;
10900;SDS011;5503;53.208;10.392;2022-07-29T01:38:31;4.22;;;1.90;;
10900;SDS011;5503;53.208;10.392;2022-07-29T01:41:03;6.30;;;2.15;;
10900;SDS011;5503;53.208;10.392;2022-07-29T01:43:36;5.20;;;2.10;;
10900;SDS011;5503;53.208;10.392;2022-07-29T01:46:20;5.18;;;2.03;;
10900;SDS011;5503;53.208;10.392;2022-07-29T01:48:53;7.40;;;2.20;;
10900;SDS011;5503;53.208;10.392;2022-07-29T01:51:25;5.30;;;2.30;;
10900;SDS011;5503;53.208;10.392;2022-07-29T01:53:59;5.68;;;2.03;;
10900;SDS011;5503;53.208;10.392;2022-07-29T01:56:30;6.90;;;2.28;;
10900;SDS011;5503;53.208;10.392;2022-07-29T01:58:59;4.95;;;2.15;;
10900;SDS011;5503;53.208;10.392;2022-07-29T02:01:31;5.23;;;2.27;;
10900;SDS011;5503;53.208;10.392;2022-07-29T02:03:59;7.00;;;2.38;;
10900;SDS011;5503;53.208;10.392;2022-07-29T02:06:30;7.50;;;2.05;;
10900;SDS011;5503;53.208;10.392;2022-07-29T02:08:59;6.72;;;2.25;;
10900;SDS011;5503;53.208;10.392;2022-07-29T02:11:28;5.95;;;2.30;;
10900;SDS011;5503;53.208;10.392;2022-07-29T02:13:57;6.23;;;2.20;;
10900;SDS011;5503;53.208;10.392;2022-07-29T02:16:25;4.82;;;2.15;;
10900;SDS011;5503;53.208;10.392;2022-07-29T02:18:56;6.97;;;2.55;;
10900;SDS011;5503;53.208;10.392;2022-07-29T02:21:26;4.25;;;2.00;;
10900;SDS011;5503;53.208;10.392;2022-07-29T02:23:55;9.13;;;2.00;;
10900;SDS011;5503;53.208;10.392;2022-07-29T02:26:26;4.73;;;2.03;;
10900;SDS011;5503;53.208;10.392;2022-07-29T02:28:56;7.22;;;2.50;;
10900;SDS011;5503;53.208;10.392;2022-07-29T02:31:26;7.38;;;1.95;;
10900;SDS011;5503;53.208;10.392;2022-07-29T02:33:57;6.90;;;2.30;;
10900;SDS011;5503;53.208;10.392;2022-07-29T02:36:25;5.68;;;2.40;;
10900;SDS011;5503;53.208;10.392;2022-07-29T02:38:54;7.07;;;2.23;;
10900;SDS011;5503;53.208;10.392;2022-07-29T02:41:26;5.65;;;2.40;;
10900;SDS011;5503;53.208;10.392;2022-07-29T02:43:55;6.15;;;2.30;;
10900;SDS011;5503;53.208;10.392;2022-07-29T02:46:26;5.85;;;2.17;;
10900;SDS011;5503;53.208;10.392;2022-07-29T02:48:59;7.70;;;2.42;;
10900;SDS011;5503;53.208;10.392;2022-07-29T02:51:32;5.30;;;2.37;;
10900;SDS011;5503;53.208;10.392;2022-07-29T02:54:07;5.60;;;2.10;;
10900;SDS011;5503;53.208;10.392;2022-07-29T02:56:36;5.70;;;2.10;;
10900;SDS011;5503;53.208;10.392;2022-07-29T02:59:06;5.85;;;2.63;;
10900;SDS011;5503;53.208;10.392;2022-07-29T03:01:34;5.75;;;2.20;;
10900;SDS011;5503;53.208;10.392;2022-07-29T03:04:04;12.40;;;3.23;;
10900;SDS011;5503;53.208;10.392;2022-07-29T03:06:31;26.15;;;5.03;;
10900;SDS011;5503;53.208;10.392;2022-07-29T03:09:00;23.13;;;4.80;;
10900;SDS011;5503;53.208;10.392;2022-07-29T03:11:27;13.57;;;4.13;;
10900;SDS011;5503;53.208;10.392;2022-07-29T03:13:55;7.85;;;2.55;;
10900;SDS011;5503;53.208;10.392;2022-07-29T03:16:23;6.07;;;1.90;;
10900;SDS011;5503;53.208;10.392;2022-07-29T03:18:50;8.38;;;2.17;;
10900;SDS011;5503;53.208;10.392;2022-07-29T03:21:19;7.22;;;2.13;;
10900;SDS011;5503;53.208;10.392;2022-07-29T03:23:46;6.60;;;2.30;;
10900;SDS011;5503;53.208;10.392;2022-07-29T03:26:13;7.15;;;2.22;;
10900;SDS011;5503;53.208;10.392;2022-07-29T03:28:40;5.90;;;2.30;;
10900;SDS011;5503;53.208;10.392;2022-07-29T03:31:08;5.20;;;2.20;;
10900;SDS011;5503;53.208;10.392;2022-07-29T03:33:35;5.15;;;2.13;;
10900;SDS011;5503;53.208;10.392;2022-07-29T03:36:02;5.40;;;2.30;;
10900;SDS011;5503;53.208;10.392;2022-07-29T03:38:30;6.20;;;2.00;;
10900;SDS011;5503;53.208;10.392;2022-07-29T03:41:02;6.83;;;2.37;;
10900;SDS011;5503;53.208;10.392;2022-07-29T03:43:34;5.72;;;2.15;;
10900;SDS011;5503;53.208;10.392;2022-07-29T03:46:03;6.28;;;2.47;;
10900;SDS011;5503;53.208;10.392;2022-07-29T03:48:34;7.18;;;2.10;;
10900;SDS011;5503;53.208;10.392;2022-07-29T03:51:03;6.15;;;2.50;;
10900;SDS011;5503;53.208;10.392;2022-07-29T03:53:31;5.93;;;2.13;;
10900;SDS011;5503;53.208;10.392;2022-07-29T03:56:00;5.75;;;2.30;;
10900;SDS011;5503;53.208;10.392;2022-07-29T03:58:29;6.53;;;2.20;;
10900;SDS011;5503;53.208;10.392;2022-07-29T04:00:57;5.63;;;2.22;;
10900;SDS011;5503;53.208;10.392;2022-07-29T04:03:25;6.70;;;2.20;;
10900;SDS011;5503;53.208;10.392;2022-07-29T04:05:59;5.70;;;2.23;;
10900;SDS011;5503;53.208;10.392;2022-07-29T04:08:27;7.10;;;2.40;;
10900;SDS011;5503;53.208;10.392;2022-07-29T04:10:55;6.25;;;2.20;;
10900;SDS011;5503;53.208;10.392;2022-07-29T04:13:22;5.43;;;2.35;;
10900;SDS011;5503;53.208;10.392;2022-07-29T04:15:49;6.13;;;2.58;;
10900;SDS011;5503;53.208;10.392;2022-07-29T04:18:17;5.63;;;2.77;;
10900;SDS011;5503;53.208;10.392;2022-07-29T04:20:44;5.50;;;2.20;;
10900;SDS011;5503;53.208;10.392;2022-07-29T04:23:11;10.07;;;2.40;;
10900;SDS011;5503;53.208;10.392;2022-07-29T04:25:38;7.10;;;2.55;;
10900;SDS011;5503;53.208;10.392;2022-07-29T04:28:07;5.97;;;2.38;;
10900;SDS011;5503;53.208;10.392;2022-07-29T04:30:35;7.47;;;2.50;;
10900;SDS011;5503;53.208;10.392;2022-07-29T04:33:03;6.45;;;2.22;;
10900;SDS011;5503;53.208;10.392;2022-07-29T04:35:33;6.60;;;2.45;;
10900;SDS011;5503;53.208;10.392;2022-07-29T04:38:01;6.13;;;2.70;;
10900;SDS011;5503;53.208;10.392;2022-07-29T04:40:28;6.68;;;2.15;;
10900;SDS011;5503;53.208;10.392;2022-07-29T04:42:58;6.97;;;2.40;;
10900;SDS011;5503;53.208;10.392;2022-07-29T04:45:26;6.32;;;2.45;;
10900;SDS011;5503;53.208;10.392;2022-07-29T04:47:53;7.63;;;2.58;;
10900;SDS011;5503;53.208;10.392;2022-07-29T04:50:20;5.03;;;2.20;;
10900;SDS011;5503;53.208;10.392;2022-07-29T04:52:48;5.30;;;2.33;;
10900;SDS011;5503;53.208;10.392;2022-07-29T04:55:15;5.93;;;2.10;;
10900;SDS011;5503;53.208;10.392;2022-07-29T04:57:42;5.70;;;2.33;;
10900;SDS011;5503;53.208;10.392;2022-07-29T05:00:09;5.53;;;2.30;;
10900;SDS011;5503;53.208;10.392;2022-07-29T05:02:38;7.05;;;2.10;;
10900;SDS011;5503;53.208;10.392;2022-07-29T05:05:05;7.85;;;2.92;;
10900;SDS011;5503;53.208;10.392;2022-07-29T05:07:32;8.50;;;2.80;;
10900;SDS011;5503;53.208;10.392;2022-07-29T05:09:59;5.18;;;2.40;;
10900;SDS011;5503;53.208;10.392;2022-07-29T05:12:27;5.07;;;2.10;;
10900;SDS011;5503;53.208;10.392;2022-07-29T05:14:54;12.27;;;3.30;;
10900;SDS011;5503;53.208;10.392;2022-07-29T05:17:21;8.23;;;2.50;;
10900;SDS011;5503;53.208;10.392;2022-07-29T05:19:50;5.83;;;2.60;;
10900;SDS011;5503;53.208;10.392;2022-07-29T05:22:17;6.53;;;2.38;;
10900;SDS011;5503;53.208;10.392;2022-07-29T05:24:44;6.72;;;2.35;;
10900;SDS011;5503;53.208;10.392;2022-07-29T05:27:11;6.40;;;2.45;;
10900;SDS011;5503;53.208;10.392;2022-07-29T05:29:39;6.72;;;2.50;;
10900;SDS011;5503;53.208;10.392;2022-07-29T05:32:06;5.40;;;2.27;;
10900;SDS011;5503;53.208;10.392;2022-07-29T05:34:33;7.05;;;2.40;;
10900;SDS011;5503;53.208;10.392;2022-07-29T05:37:02;4.60;;;2.22;;
10900;SDS011;5503;53.208;10.392;2022-07-29T05:39:28;5.70;;;2.47;;
10900;SDS011;5503;53.208;10.392;2022-07-29T05:41:56;8.65;;;2.33;;
10900;SDS011;5503;53.208;10.392;2022-07-29T05:44:23;5.80;;;2.30;;
10900;SDS011;5503;53.208;10.392;2022-07-29T05:46:50;7.85;;;2.67;;
10900;SDS011;5503;53.208;10.392;2022-07-29T05:49:17;6.50;;;2.70;;
10900;SDS011;5503;53.208;10.392;2022-07-29T05:51:44;6.43;;;2.10;;
10900;SDS011;5503;53.208;10.392;2022-07-29T05:54:14;6.88;;;2.60;;
10900;SDS011;5503;53.208;10.392;2022-07-29T05:56:41;5.60;;;2.40;;
10900;SDS011;5503;53.208;10.392;2022-07-29T05:59:08;6.90;;;2.25;;
10900;SDS011;5503;53.208;10.392;2022-07-29T06:01:35;9.10;;;2.50;;
10900;SDS011;5503;53.208;10.392;2022-07-29T06:04:04;4.53;;;2.10;;
10900;SDS011;5503;53.208;10.392;2022-07-29T06:06:31;7.13;;;2.58;;
10900;SDS011;5503;53.208;10.392;2022-07-29T06:08:59;7.47;;;2.30;;
10900;SDS011;5503;53.208;10.392;2022-07-29T06:11:27;7.10;;;2.25;;
10900;SDS011;5503;53.208;10.392;2022-07-29T06:13:55;6.75;;;2.40;;
10900;SDS011;5503;53.208;10.392;2022-07-29T06:16:22;7.28;;;2.33;;
10900;SDS011;5503;53.208;10.392;2022-07-29T06:18:49;6.10;;;2.55;;
10900;SDS011;5503;53.208;10.392;2022-07-29T06:21:17;4.40;;;2.20;;
10900;SDS011;5503;53.208;10.392;2022-07-29T06:23:44;4.47;;;2.15;;
10900;SDS011;5503;53.208;10.392;2022-07-29T06:26:11;7.22;;;2.30;;
10900;SDS011;5503;53.208;10.392;2022-07-29T06:28:40;6.32;;;2.40;;
10900;SDS011;5503;53.208;10.392;2022-07-29T06:31:07;6.60;;;2.60;;
10900;SDS011;5503;53.208;10.392;2022-07-29T06:33:34;7.30;;;2.40;;
10900;SDS011;5503;53.208;10.392;2022-07-29T06:36:03;6.72;;;2.35;;
10900;SDS011;5503;53.208;10.392;2022-07-29T06:38:30;5.78;;;2.35;;
10900;SDS011;5503;53.208;10.392;2022-07-29T06:40:57;8.43;;;2.40;;
10900;SDS011;5503;53.208;10.392;2022-07-29T06:43:33;7.35;;;2.28;;
10900;SDS011;5503;53.208;10.392;2022-07-29T06:46:04;5.20;;;2.50;;
10900;SDS011;5503;53.208;10.392;2022-07-29T06:48:33;6.38;;;2.00;;
10900;SDS011;5503;53.208;10.392;2022-07-29T06:51:01;7.32;;;2.40;;
10900;SDS011;5503;53.208;10.392;2022-07-29T06:53:29;7.07;;;2.55;;
10900;SDS011;5503;53.208;10.392;2022-07-29T06:55:56;7.97;;;2.90;;
10900;SDS011;5503;53.208;10.392;2022-07-29T06:58:24;4.97;;;2.27;;
10900;SDS011;5503;53.208;10.392;2022-07-29T07:00:51;6.03;;;2.70;;
10900;SDS011;5503;53.208;10.392;2022-07-29T07:03:20;6.72;;;2.25;;
10900;SDS011;5503;53.208;10.392;2022-07-29T07:05:47;8.32;;;2.00;;
10900;SDS011;5503;53.208;10.392;2022-07-29T07:08:15;5.82;;;2.00;;
10900;SDS011;5503;53.208;10.392;2022-07-29T07:10:42;6.10;;;2.30;;
10900;SDS011;5503;53.208;10.392;2022-07-29T07:13:09;6.65;;;2.42;;
10900;SDS011;5503;53.208;10.392;2022-07-29T07:15:36;10.30;;;2.47;;
10900;SDS011;5503;53.208;10.392;2022-07-29T07:18:04;8.50;;;2.45;;
10900;SDS011;5503;53.208;10.392;2022-07-29T07:20:33;8.05;;;2.42;;
10900;SDS011;5503;53.208;10.392;2022-07-29T07:23:00;5.77;;;2.30;;
10900;SDS011;5503;53.208;10.392;2022-07-29T07:25:27;7.88;;;2.63;;
10900;SDS011;5503;53.208;10.392;2022-07-29T07:27:54;7.32;;;2.50;;
10900;SDS011;5503;53.208;10.392;2022-07-29T07:30:21;7.28;;;2.42;;
10900;SDS011;5503;53.208;10.392;2022-07-29T07:32:48;5.93;;;2.20;;
10900;SDS011;5503;53.208;10.392;2022-07-29T07:35:16;10.83;;;2.73;;
10900;SDS011;5503;53.208;10.392;2022-07-29T07:37:44;8.77;;;2.42;;
10900;SDS011;5503;53.208;10.392;2022-07-29T07:40:12;5.50;;;2.38;;
10900;SDS011;5503;53.208;10.392;2022-07-29T07:42:40;5.57;;;2.20;;
10900;SDS011;5503;53.208;10.392;2022-07-29T07:45:07;6.30;;;2.38;;
10900;SDS011;5503;53.208;10.392;2022-07-29T07:47:35;11.53;;;2.07;;
10900;SDS011;5503;53.208;10.392;2022-07-29T07:50:03;5.95;;;2.33;;
10900;SDS011;5503;53.208;10.392;2022-07-29T07:52:30;7.20;;;2.28;;
10900;SDS011;5503;53.208;10.392;2022-07-29T07:54:59;4.78;;;2.15;;
10900;SDS011;5503;53.208;10.392;2022-07-29T07:57:26;5.85;;;2.20;;
10900;SDS011;5503;53.208;10.392;2022-07-29T07:59:53;6.07;;;2.63;;
10900;SDS011;5503;53.208;10.392;2022-07-29T08:02:20;7.10;;;2.40;;
10900;SDS011;5503;53.208;10.392;2022-07-29T08:04:47;4.85;;;2.10;;
10900;SDS011;5503;53.208;10.392;2022-07-29T08:07:14;6.90;;;2.17;;
10900;SDS011;5503;53.208;10.392;2022-07-29T08:09:42;6.75;;;2.28;;
10900;SDS011;5503;53.208;10.392;2022-07-29T08:12:10;6.77;;;2.10;;
10900;SDS011;5503;53.208;10.392;2022-07-29T08:14:37;6.38;;;2.25;;
10900;SDS011;5503;53.208;10.392;2022-07-29T08:17:04;5.72;;;2.30;;
10900;SDS011;5503;53.208;10.392;2022-07-29T08:19:31;6.70;;;1.75;;
10900;SDS011;5503;53.208;10.392;2022-07-29T08:21:58;7.20;;;2.20;;
10900;SDS011;5503;53.208;10.392;2022-07-29T08:24:26;6.93;;;2.27;;
10900;SDS011;5503;53.208;10.392;2022-07-29T08:27:18;4.75;;;2.00;;
10900;SDS011;5503;53.208;10.392;2022-07-29T08:29:46;6.97;;;2.38;;
10900;SDS011;5503;53.208;10.392;2022-07-29T08:32:13;8.63;;;2.15;;
10900;SDS011;5503;53.208;10.392;2022-07-29T08:34:41;7.15;;;2.00;;
10900;SDS011;5503;53.208;10.392;2022-07-29T08:37:11;5.73;;;2.27;;
10900;SDS011;5503;53.208;10.392;2022-07-29T08:39:38;6.63;;;1.60;;
10900;SDS011;5503;53.208;10.392;2022-07-29T08:42:05;4.53;;;1.80;;
10900;SDS011;5503;53.208;10.392;2022-07-29T08:44:34;4.90;;;1.92;;
10900;SDS011;5503;53.208;10.392;2022-07-29T08:47:01;5.78;;;1.98;;
10900;SDS011;5503;53.208;10.392;2022-07-29T08:49:29;4.30;;;1.77;;
10900;SDS011;5503;53.208;10.392;2022-07-29T08:51:57;6.05;;;1.90;;
10900;SDS011;5503;53.208;10.392;2022-07-29T08:54:25;5.47;;;1.70;;
10900;SDS011;5503;53.208;10.392;2022-07-29T08:56:55;7.47;;;2.00;;
10900;SDS011;5503;53.208;10.392;2022-07-29T08:59:27;5.25;;;1.73;;
10900;SDS011;5503;53.208;10.392;2022-07-29T09:02:00;5.37;;;1.80;;
10900;SDS011;5503;53.208;10.392;2022-07-29T09:04:29;5.97;;;1.95;;
10900;SDS011;5503;53.208;10.392;2022-07-29T09:07:00;6.88;;;2.10;;
10900;SDS011;5503;53.208;10.392;2022-07-29T09:09:30;6.22;;;2.03;;
10900;SDS011;5503;53.208;10.392;2022-07-29T09:11:59;6.00;;;2.40;;
10900;SDS011;5503;53.208;10.392;2022-07-29T09:14:29;10.13;;;2.17;;
10900;SDS011;5503;53.208;10.392;2022-07-29T09:16:56;4.47;;;1.85;;
10900;SDS011;5503;53.208;10.392;2022-07-29T09:19:26;4.55;;;1.70;;
10900;SDS011;5503;53.208;10.392;2022-07-29T09:21:54;5.93;;;1.70;;
10900;SDS011;5503;53.208;10.392;2022-07-29T09:24:35;6.57;;;1.75;;
10900;SDS011;5503;53.208;10.392;2022-07-29T09:29:59;5.68;;;1.88;;
10900;SDS011;5503;53.208;10.392;2022-07-29T09:32:30;5.45;;;1.80;;
10900;SDS011;5503;53.208;10.392;2022-07-29T09:35:18;5.07;;;1.60;;
10900;SDS011;5503;53.208;10.392;2022-07-29T09:37:47;5.25;;;1.77;;
10900;SDS011;5503;53.208;10.392;2022-07-29T09:40:15;6.10;;;1.90;;
10900;SDS011;5503;53.208;10.392;2022-07-29T09:42:43;23.85;;;4.78;;
10900;SDS011;5503;53.208;10.392;2022-07-29T09:45:11;7.47;;;1.55;;
10900;SDS011;5503;53.208;10.392;2022-07-29T09:47:42;5.75;;;1.75;;
10900;SDS011;5503;53.208;10.392;2022-07-29T09:50:12;8.15;;;1.58;;
10900;SDS011;5503;53.208;10.392;2022-07-29T09:52:48;5.13;;;1.70;;
10900;SDS011;5503;53.208;10.392;2022-07-29T09:55:25;6.80;;;1.92;;
10900;SDS011;5503;53.208;10.392;2022-07-29T09:57:54;6.07;;;2.33;;
10900;SDS011;5503;53.208;10.392;2022-07-29T10:00:43;7.10;;;2.00;;
10900;SDS011;5503;53.208;10.392;2022-07-29T10:03:11;6.28;;;2.05;;
10900;SDS011;5503;53.208;10.392;2022-07-29T10:05:38;7.00;;;1.70;;
10900;SDS011;5503;53.208;10.392;2022-07-29T10:08:08;7.70;;;2.70;;
10900;SDS011;5503;53.208;10.392;2022-07-29T10:10:37;7.47;;;2.40;;
10900;SDS011;5503;53.208;10.392;2022-07-29T10:13:07;5.80;;;2.08;;
10900;SDS011;5503;53.208;10.392;2022-07-29T10:15:36;10.38;;;2.08;;
10900;SDS011;5503;53.208;10.392;2022-07-29T10:18:06;6.13;;;1.93;;
10900;SDS011;5503;53.208;10.392;2022-07-29T10:20:36;5.80;;;2.33;;
10900;SDS011;5503;53.208;10.392;2022-07-29T10:23:04;9.65;;;1.52;;
10900;SDS011;5503;53.208;10.392;2022-07-29T10:25:33;4.95;;;1.20;;
10900;SDS011;5503;53.208;10.392;2022-07-29T10:28:00;7.07;;;1.65;;
10900;SDS011;5503;53.208;10.392;2022-07-29T10:30:27;5.87;;;1.70;;
10900;SDS011;5503;53.208;10.392;2022-07-29T10:32:58;5.88;;;1.50;;
10900;SDS011;5503;53.208;10.392;2022-07-29T10:35:46;4.55;;;1.42;;
10900;SDS011;5503;53.208;10.392;2022-07-29T10:38:41;5.75;;;1.45;;
10900;SDS011;5503;53.208;10.392;2022-07-29T10:41:23;5.78;;;1.80;;
10900;SDS011;5503;53.208;10.392;2022-07-29T10:44:03;4.37;;;1.40;;
10900;SDS011;5503;53.208;10.392;2022-07-29T10:46:34;5.43;;;1.40;;
10900;SDS011;5503;53.208;10.392;2022-07-29T10:49:06;4.97;;;1.50;;
10900;SDS011;5503;53.208;10.392;2022-07-29T10:54:40;7.10;;;1.42;;
10900;SDS011;5503;53.208;10.392;2022-07-29T10:57:23;4.97;;;1.30;;
10900;SDS011;5503;53.208;10.392;2022-07-29T11:02:54;10.63;;;1.65;;
10900;SDS011;5503;53.208;10.392;2022-07-29T11:05:23;6.97;;;1.50;;
10900;SDS011;5503;53.208;10.392;2022-07-29T11:10:48;5.20;;;1.47;;
10900;SDS011;5503;53.208;10.392;2022-07-29T11:16:20;11.50;;;1.50;;
10900;SDS011;5503;53.208;10.392;2022-07-29T11:21:47;4.93;;;1.20;;
10900;SDS011;5503;53.208;10.392;2022-07-29T11:24:18;5.90;;;1.17;;
10900;SDS011;5503;53.208;10.392;2022-07-29T11:27:07;4.25;;;1.40;;
10900;SDS011;5503;53.208;10.392;2022-07-29T11:29:39;7.57;;;1.45;;
10900;SDS011;5503;53.208;10.392;2022-07-29T11:32:14;4.80;;;1.25;;
10900;SDS011;5503;53.208;10.392;2022-07-29T11:34:44;5.28;;;1.40;;
10900;SDS011;5503;53.208;10.392;2022-07-29T11:40:12;5.00;;;1.30;;
10900;SDS011;5503;53.208;10.392;2022-07-29T11:42:42;5.20;;;1.20;;
10900;SDS011;5503;53.208;10.392;2022-07-29T11:45:12;3.88;;;1.30;;
10900;SDS011;5503;53.208;10.392;2022-07-29T11:47:49;6.40;;;1.50;;
10900;SDS011;5503;53.208;10.392;2022-07-29T11:50:26;5.80;;;1.60;;
10900;SDS011;5503;53.208;10.392;2022-07-29T11:52:54;3.85;;;1.33;;
10900;SDS011;5503;53.208;10.392;2022-07-29T11:55:22;6.97;;;1.40;;
10900;SDS011;5503;53.208;10.392;2022-07-29T11:57:50;5.50;;;1.30;;
10900;SDS011;5503;53.208;10.392;2022-07-29T12:00:27;8.00;;;1.63;;
10900;SDS011;5503;53.208;10.392;2022-07-29T12:02:56;5.03;;;1.60;;
10900;SDS011;5503;53.208;10.392;2022-07-29T12:05:31;3.95;;;1.23;;
10900;SDS011;5503;53.208;10.392;2022-07-29T12:08:07;4.30;;;1.70;;
10900;SDS011;5503;53.208;10.392;2022-07-29T12:10:38;5.03;;;1.52;;
10900;SDS011;5503;53.208;10.392;2022-07-29T12:13:06;5.50;;;1.50;;
10900;SDS011;5503;53.208;10.392;2022-07-29T12:15:36;6.33;;;1.60;;
10900;SDS011;5503;53.208;10.392;2022-07-29T12:18:13;4.75;;;1.50;;
10900;SDS011;5503;53.208;10.392;2022-07-29T12:20:41;5.00;;;1.98;;
10900;SDS011;5503;53.208;10.392;2022-07-29T12:23:09;9.75;;;1.77;;
10900;SDS011;5503;53.208;10.392;2022-07-29T12:25:38;5.13;;;1.60;;
10900;SDS011;5503;53.208;10.392;2022-07-29T12:28:06;8.30;;;1.70;;
10900;SDS011;5503;53.208;10.392;2022-07-29T12:30:37;7.53;;;1.60;;
10900;SDS011;5503;53.208;10.392;2022-07-29T12:33:12;6.25;;;1.20;;
10900;SDS011;5503;53.208;10.392;2022-07-29T12:35:45;8.00;;;1.55;;
10900;SDS011;5503;53.208;10.392;2022-07-29T12:38:14;7.20;;;1.42;;
10900;SDS011;5503;53.208;10.392;2022-07-29T12:40:42;7.80;;;1.70;;
10900;SDS011;5503;53.208;10.392;2022-07-29T12:43:11;5.75;;;1.48;;
10900;SDS011;5503;53.208;10.392;2022-07-29T12:45:42;6.40;;;1.50;;
10900;SDS011;5503;53.208;10.392;2022-07-29T12:48:10;7.47;;;1.50;;
10900;SDS011;5503;53.208;10.392;2022-07-29T12:50:53;6.18;;;1.50;;
10900;SDS011;5503;53.208;10.392;2022-07-29T12:53:23;6.30;;;1.63;;
10900;SDS011;5503;53.208;10.392;2022-07-29T12:55:52;5.70;;;1.60;;
10900;SDS011;5503;53.208;10.392;2022-07-29T12:58:30;7.93;;;1.58;;
10900;SDS011;5503;53.208;10.392;2022-07-29T13:01:02;4.45;;;1.73;;
10900;SDS011;5503;53.208;10.392;2022-07-29T13:03:46;5.90;;;1.75;;
10900;SDS011;5503;53.208;10.392;2022-07-29T13:06:35;5.57;;;1.83;;
10900;SDS011;5503;53.208;10.392;2022-07-29T13:09:08;6.40;;;1.58;;
10900;SDS011;5503;53.208;10.392;2022-07-29T13:11:38;5.10;;;1.63;;
10900;SDS011;5503;53.208;10.392;2022-07-29T13:14:06;6.80;;;1.58;;
10900;SDS011;5503;53.208;10.392;2022-07-29T13:16:36;6.75;;;1.75;;
10900;SDS011;5503;53.208;10.392;2022-07-29T13:19:07;5.53;;;1.40;;
10900;SDS011;5503;53.208;10.392;2022-07-29T13:21:36;4.63;;;1.75;;
10900;SDS011;5503;53.208;10.392;2022-07-29T13:24:05;6.30;;;1.60;;
10900;SDS011;5503;53.208;10.392;2022-07-29T13:26:32;5.90;;;1.40;;
10900;SDS011;5503;53.208;10.392;2022-07-29T13:28:59;6.03;;;1.88;;
10900;SDS011;5503;53.208;10.392;2022-07-29T13:31:27;4.27;;;1.50;;
10900;SDS011;5503;53.208;10.392;2022-07-29T13:33:55;6.78;;;1.85;;
10900;SDS011;5503;53.208;10.392;2022-07-29T13:36:22;5.70;;;1.90;;
10900;SDS011;5503;53.208;10.392;2022-07-29T13:38:49;6.90;;;1.60;;
10900;SDS011;5503;53.208;10.392;2022-07-29T13:41:16;4.72;;;1.80;;
10900;SDS011;5503;53.208;10.392;2022-07-29T13:43:44;8.07;;;1.80;;
10900;SDS011;5503;53.208;10.392;2022-07-29T13:46:11;6.57;;;1.85;;
10900;SDS011;5503;53.208;10.392;2022-07-29T13:48:38;5.63;;;1.63;;
10900;SDS011;5503;53.208;10.392;2022-07-29T13:51:07;6.75;;;1.60;;
10900;SDS011;5503;53.208;10.392;2022-07-29T13:53:34;5.78;;;2.00;;
10900;SDS011;5503;53.208;10.392;2022-07-29T13:56:01;6.80;;;1.77;;
10900;SDS011;5503;53.208;10.392;2022-07-29T13:58:30;8.00;;;1.88;;
10900;SDS011;5503;53.208;10.392;2022-07-29T14:00:58;6.05;;;2.22;;
10900;SDS011;5503;53.208;10.392;2022-07-29T14:03:28;7.10;;;2.60;;
10900;SDS011;5503;53.208;10.392;2022-07-29T14:05:55;7.78;;;1.80;;
10900;SDS011;5503;53.208;10.392;2022-07-29T14:08:26;5.33;;;1.90;;
10900;SDS011;5503;53.208;10.392;2022-07-29T14:10:53;6.68;;;2.10;;
10900;SDS011;5503;53.208;10.392;2022-07-29T14:13:20;7.05;;;1.60;;
10900;SDS011;5503;53.208;10.392;2022-07-29T14:15:47;17.33;;;2.10;;
10900;SDS011;5503;53.208;10.392;2022-07-29T14:18:14;7.32;;;2.10;;
10900;SDS011;5503;53.208;10.392;2022-07-29T14:20:42;6.83;;;1.80;;
10900;SDS011;5503;53.208;10.392;2022-07-29T14:23:09;6.40;;;1.73;;
10900;SDS011;5503;53.208;10.392;2022-07-29T14:25:37;5.85;;;1.85;;
10900;SDS011;5503;53.208;10.392;2022-07-29T14:28:04;9.02;;;1.98;;
10900;SDS011;5503;53.208;10.392;2022-07-29T14:30:32;4.35;;;1.70;;
10900;SDS011;5503;53.208;10.392;2022-07-29T14:32:59;8.70;;;1.70;;
10900;SDS011;5503;53.208;10.392;2022-07-29T14:35:26;7.55;;;2.10;;
10900;SDS011;5503;53.208;10.392;2022-07-29T14:37:54;4.88;;;1.90;;
10900;SDS011;5503;53.208;10.392;2022-07-29T14:40:22;15.65;;;2.20;;
10900;SDS011;5503;53.208;10.392;2022-07-29T14:42:52;5.38;;;1.95;;
10900;SDS011;5503;53.208;10.392;2022-07-29T14:45:18;6.77;;;1.73;;
10900;SDS011;5503;53.208;10.392;2022-07-29T14:47:46;7.32;;;1.90;;
10900;SDS011;5503;53.208;10.392;2022-07-29T14:50:14;7.68;;;1.95;;
10900;SDS011;5503;53.208;10.392;2022-07-29T14:52:41;7.38;;;2.03;;
10900;SDS011;5503;53.208;10.392;2022-07-29T14:55:09;6.82;;;1.70;;
10900;SDS011;5503;53.208;10.392;2022-07-29T14:57:36;5.93;;;2.10;;
10900;SDS011;5503;53.208;10.392;2022-07-29T15:00:05;6.97;;;1.77;;
10900;SDS011;5503;53.208;10.392;2022-07-29T15:02:33;5.13;;;1.77;;
10900;SDS011;5503;53.208;10.392;2022-07-29T15:05:00;6.97;;;2.00;;
10900;SDS011;5503;53.208;10.392;2022-07-29T15:07:27;5.15;;;1.85;;
10900;SDS011;5503;53.208;10.392;2022-07-29T15:09:54;5.73;;;1.73;;
10900;SDS011;5503;53.208;10.392;2022-07-29T15:12:21;6.43;;;1.98;;
10900;SDS011;5503;53.208;10.392;2022-07-29T15:14:48;5.32;;;1.90;;
10900;SDS011;5503;53.208;10.392;2022-07-29T15:17:17;5.97;;;2.00;;
10900;SDS011;5503;53.208;10.392;2022-07-29T15:19:45;5.93;;;1.73;;
10900;SDS011;5503;53.208;10.392;2022-07-29T15:22:12;8.03;;;1.90;;
10900;SDS011;5503;53.208;10.392;2022-07-29T15:24:39;4.60;;;1.75;;